sensor_id;sensor_type;location;lat;lon;timestamp;P1;durP1;ratioP1;P2;durP2;ratioP2
18280;SDS011;9266;51.132;17.062;2022-07-11T00:02:03;5.80;;;3.00;;
18280;SDS011;9266;51.132;17.062;2022-07-11T00:04:31;6.77;;;3.70;;
18280;SDS011;9266;51.132;17.062;2022-07-11T00:06:59;7.17;;;3.37;;
18280;SDS011;9266;51.132;17.062;2022-07-11T00:09:27;6.37;;;3.40;;
18280;SDS011;9266;51.132;17.062;2022-07-11T00:11:54;5.83;;;3.00;;
18280;SDS011;9266;51.132;17.062;2022-07-11T00:14:22;6.37;;;3.00;;
18280;SDS011;9266;51.132;17.062;2022-07-11T00:16:49;6.33;;;2.90;;
18280;SDS011;9266;51.132;17.062;2022-07-11T00:19:17;7.40;;;3.00;;
18280;SDS011;9266;51.132;17.062;2022-07-11T00:21:45;6.53;;;3.10;;
18280;SDS011;9266;51.132;17.062;2022-07-11T00:24:12;7.60;;;3.30;;
18280;SDS011;9266;51.132;17.062;2022-07-11T00:26:39;5.67;;;3.03;;
18280;SDS011;9266;51.132;17.062;2022-07-11T00:29:06;10.23;;;3.43;;
18280;SDS011;9266;51.132;17.062;2022-07-11T00:31:33;5.87;;;3.13;;
18280;SDS011;9266;51.132;17.062;2022-07-11T00:34:00;5.80;;;3.20;;
18280;SDS011;9266;51.132;17.062;2022-07-11T00:36:28;7.47;;;3.23;;
18280;SDS011;9266;51.132;17.062;2022-07-11T00:38:56;6.00;;;2.90;;
18280;SDS011;9266;51.132;17.062;2022-07-11T00:41:23;7.23;;;3.20;;
18280;SDS011;9266;51.132;17.062;2022-07-11T00:43:51;7.20;;;3.07;;
18280;SDS011;9266;51.132;17.062;2022-07-11T00:46:19;6.07;;;3.10;;
18280;SDS011;9266;51.132;17.062;2022-07-11T00:48:46;5.73;;;3.20;;
18280;SDS011;9266;51.132;17.062;2022-07-11T00:51:13;6.27;;;2.77;;
18280;SDS011;9266;51.132;17.062;2022-07-11T00:53:43;6.93;;;3.20;;
18280;SDS011;9266;51.132;17.062;2022-07-11T00:56:10;6.83;;;3.17;;
18280;SDS011;9266;51.132;17.062;2022-07-11T00:58:37;6.57;;;2.70;;
18280;SDS011;9266;51.132;17.062;2022-07-11T01:01:04;4.37;;;2.73;;
18280;SDS011;9266;51.132;17.062;2022-07-11T01:03:33;6.50;;;3.13;;
18280;SDS011;9266;51.132;17.062;2022-07-11T01:06:05;8.23;;;2.87;;
18280;SDS011;9266;51.132;17.062;2022-07-11T01:08:32;6.60;;;3.33;;
18280;SDS011;9266;51.132;17.062;2022-07-11T01:11:02;6.00;;;3.27;;
18280;SDS011;9266;51.132;17.062;2022-07-11T01:13:29;9.17;;;3.30;;
18280;SDS011;9266;51.132;17.062;2022-07-11T01:16:06;5.10;;;2.83;;
18280;SDS011;9266;51.132;17.062;2022-07-11T01:18:34;6.40;;;2.83;;
18280;SDS011;9266;51.132;17.062;2022-07-11T01:21:01;7.53;;;3.70;;
18280;SDS011;9266;51.132;17.062;2022-07-11T01:23:34;5.87;;;3.10;;
18280;SDS011;9266;51.132;17.062;2022-07-11T01:26:03;6.93;;;3.20;;
18280;SDS011;9266;51.132;17.062;2022-07-11T01:28:30;5.67;;;3.13;;
18280;SDS011;9266;51.132;17.062;2022-07-11T01:30:57;8.17;;;3.20;;
18280;SDS011;9266;51.132;17.062;2022-07-11T01:33:24;6.30;;;2.77;;
18280;SDS011;9266;51.132;17.062;2022-07-11T01:35:51;7.70;;;3.10;;
18280;SDS011;9266;51.132;17.062;2022-07-11T01:38:18;8.57;;;3.40;;
18280;SDS011;9266;51.132;17.062;2022-07-11T01:40:47;6.93;;;3.17;;
18280;SDS011;9266;51.132;17.062;2022-07-11T01:43:14;4.97;;;3.20;;
18280;SDS011;9266;51.132;17.062;2022-07-11T01:45:41;5.23;;;3.37;;
18280;SDS011;9266;51.132;17.062;2022-07-11T01:48:08;7.10;;;3.37;;
18280;SDS011;9266;51.132;17.062;2022-07-11T01:50:35;9.13;;;3.40;;
18280;SDS011;9266;51.132;17.062;2022-07-11T01:53:02;7.13;;;3.30;;
18280;SDS011;9266;51.132;17.062;2022-07-11T01:55:29;5.80;;;3.40;;
18280;SDS011;9266;51.132;17.062;2022-07-11T01:57:57;7.67;;;3.30;;
18280;SDS011;9266;51.132;17.062;2022-07-11T02:00:24;8.00;;;3.07;;
18280;SDS011;9266;51.132;17.062;2022-07-11T02:02:51;5.57;;;3.13;;
18280;SDS011;9266;51.132;17.062;2022-07-11T02:05:18;6.70;;;3.50;;
18280;SDS011;9266;51.132;17.062;2022-07-11T02:07:45;6.43;;;3.60;;
18280;SDS011;9266;51.132;17.062;2022-07-11T02:10:29;7.63;;;3.47;;
18280;SDS011;9266;51.132;17.062;2022-07-11T02:12:58;8.43;;;3.30;;
18280;SDS011;9266;51.132;17.062;2022-07-11T02:15:26;8.07;;;3.70;;
18280;SDS011;9266;51.132;17.062;2022-07-11T02:17:53;10.13;;;3.50;;
18280;SDS011;9266;51.132;17.062;2022-07-11T02:20:21;12.87;;;3.87;;
18280;SDS011;9266;51.132;17.062;2022-07-11T02:22:49;5.10;;;3.23;;
18280;SDS011;9266;51.132;17.062;2022-07-11T02:25:16;6.27;;;3.50;;
18280;SDS011;9266;51.132;17.062;2022-07-11T02:27:44;6.80;;;3.40;;
18280;SDS011;9266;51.132;17.062;2022-07-11T02:30:12;9.30;;;3.50;;
18280;SDS011;9266;51.132;17.062;2022-07-11T02:32:39;8.27;;;3.90;;
18280;SDS011;9266;51.132;17.062;2022-07-11T02:35:06;10.87;;;4.17;;
18280;SDS011;9266;51.132;17.062;2022-07-11T02:37:33;13.10;;;4.23;;
18280;SDS011;9266;51.132;17.062;2022-07-11T02:40:01;6.40;;;3.20;;
18280;SDS011;9266;51.132;17.062;2022-07-11T02:42:28;7.17;;;3.60;;
18280;SDS011;9266;51.132;17.062;2022-07-11T02:44:55;7.67;;;3.97;;
18280;SDS011;9266;51.132;17.062;2022-07-11T02:47:23;8.57;;;4.20;;
18280;SDS011;9266;51.132;17.062;2022-07-11T02:49:50;8.00;;;3.83;;
18280;SDS011;9266;51.132;17.062;2022-07-11T02:52:17;9.87;;;3.70;;
18280;SDS011;9266;51.132;17.062;2022-07-11T02:54:44;6.30;;;3.40;;
18280;SDS011;9266;51.132;17.062;2022-07-11T02:57:11;10.43;;;4.13;;
18280;SDS011;9266;51.132;17.062;2022-07-11T02:59:38;9.57;;;4.13;;
18280;SDS011;9266;51.132;17.062;2022-07-11T03:02:06;6.73;;;3.70;;
18280;SDS011;9266;51.132;17.062;2022-07-11T03:04:34;6.00;;;3.90;;
18280;SDS011;9266;51.132;17.062;2022-07-11T03:07:01;12.67;;;4.17;;
18280;SDS011;9266;51.132;17.062;2022-07-11T03:09:28;9.07;;;3.60;;
18280;SDS011;9266;51.132;17.062;2022-07-11T03:11:55;7.37;;;3.77;;
18280;SDS011;9266;51.132;17.062;2022-07-11T03:14:22;7.67;;;3.40;;
18280;SDS011;9266;51.132;17.062;2022-07-11T03:16:49;11.47;;;3.83;;
18280;SDS011;9266;51.132;17.062;2022-07-11T03:19:16;5.87;;;3.40;;
18280;SDS011;9266;51.132;17.062;2022-07-11T03:21:45;7.20;;;3.40;;
18280;SDS011;9266;51.132;17.062;2022-07-11T03:24:12;8.37;;;3.83;;
18280;SDS011;9266;51.132;17.062;2022-07-11T03:26:39;7.93;;;3.13;;
18280;SDS011;9266;51.132;17.062;2022-07-11T03:29:06;6.97;;;3.37;;
18280;SDS011;9266;51.132;17.062;2022-07-11T03:31:34;5.20;;;3.20;;
18280;SDS011;9266;51.132;17.062;2022-07-11T03:34:01;5.13;;;3.27;;
18280;SDS011;9266;51.132;17.062;2022-07-11T03:36:28;7.03;;;3.37;;
18280;SDS011;9266;51.132;17.062;2022-07-11T03:38:57;5.97;;;3.07;;
18280;SDS011;9266;51.132;17.062;2022-07-11T03:41:25;6.57;;;3.23;;
18280;SDS011;9266;51.132;17.062;2022-07-11T03:43:52;7.50;;;3.00;;
18280;SDS011;9266;51.132;17.062;2022-07-11T03:46:19;8.10;;;3.00;;
18280;SDS011;9266;51.132;17.062;2022-07-11T03:48:47;6.60;;;2.90;;
18280;SDS011;9266;51.132;17.062;2022-07-11T03:51:14;7.93;;;2.93;;
18280;SDS011;9266;51.132;17.062;2022-07-11T03:53:42;7.50;;;3.23;;
18280;SDS011;9266;51.132;17.062;2022-07-11T03:56:11;7.57;;;3.17;;
18280;SDS011;9266;51.132;17.062;2022-07-11T03:58:41;9.27;;;3.13;;
18280;SDS011;9266;51.132;17.062;2022-07-11T04:01:09;6.30;;;3.37;;
18280;SDS011;9266;51.132;17.062;2022-07-11T04:03:36;6.83;;;3.13;;
18280;SDS011;9266;51.132;17.062;2022-07-11T04:06:03;6.57;;;3.17;;
18280;SDS011;9266;51.132;17.062;2022-07-11T04:08:31;6.90;;;3.23;;
18280;SDS011;9266;51.132;17.062;2022-07-11T04:10:58;5.90;;;2.93;;
18280;SDS011;9266;51.132;17.062;2022-07-11T04:13:26;8.77;;;3.50;;
18280;SDS011;9266;51.132;17.062;2022-07-11T04:15:53;5.97;;;3.17;;
18280;SDS011;9266;51.132;17.062;2022-07-11T04:18:21;8.53;;;2.93;;
18280;SDS011;9266;51.132;17.062;2022-07-11T04:20:48;5.80;;;2.50;;
18280;SDS011;9266;51.132;17.062;2022-07-11T04:23:16;5.33;;;2.60;;
18280;SDS011;9266;51.132;17.062;2022-07-11T04:25:43;8.03;;;3.47;;
18280;SDS011;9266;51.132;17.062;2022-07-11T04:28:11;6.40;;;2.80;;
18280;SDS011;9266;51.132;17.062;2022-07-11T04:30:39;5.43;;;2.80;;
18280;SDS011;9266;51.132;17.062;2022-07-11T04:33:06;3.47;;;2.40;;
18280;SDS011;9266;51.132;17.062;2022-07-11T04:35:33;8.07;;;3.27;;
18280;SDS011;9266;51.132;17.062;2022-07-11T04:38:00;4.30;;;2.57;;
18280;SDS011;9266;51.132;17.062;2022-07-11T04:40:27;6.37;;;2.57;;
18280;SDS011;9266;51.132;17.062;2022-07-11T04:42:55;5.70;;;2.60;;
18280;SDS011;9266;51.132;17.062;2022-07-11T04:45:22;7.33;;;2.90;;
18280;SDS011;9266;51.132;17.062;2022-07-11T04:47:51;4.57;;;2.47;;
18280;SDS011;9266;51.132;17.062;2022-07-11T04:50:18;11.47;;;8.93;;
18280;SDS011;9266;51.132;17.062;2022-07-11T04:52:46;5.70;;;2.60;;
18280;SDS011;9266;51.132;17.062;2022-07-11T04:55:13;5.13;;;2.40;;
18280;SDS011;9266;51.132;17.062;2022-07-11T04:57:41;7.10;;;2.73;;
18280;SDS011;9266;51.132;17.062;2022-07-11T05:00:09;6.10;;;2.70;;
18280;SDS011;9266;51.132;17.062;2022-07-11T05:02:37;4.37;;;2.17;;
18280;SDS011;9266;51.132;17.062;2022-07-11T05:05:07;4.97;;;2.60;;
18280;SDS011;9266;51.132;17.062;2022-07-11T05:07:34;4.13;;;2.20;;
18280;SDS011;9266;51.132;17.062;2022-07-11T05:10:01;3.97;;;2.27;;
18280;SDS011;9266;51.132;17.062;2022-07-11T05:12:29;8.97;;;2.60;;
18280;SDS011;9266;51.132;17.062;2022-07-11T05:14:56;4.90;;;2.63;;
18280;SDS011;9266;51.132;17.062;2022-07-11T05:17:24;5.27;;;2.23;;
18280;SDS011;9266;51.132;17.062;2022-07-11T05:19:52;5.67;;;2.53;;
18280;SDS011;9266;51.132;17.062;2022-07-11T05:22:21;7.03;;;2.30;;
18280;SDS011;9266;51.132;17.062;2022-07-11T05:24:48;3.70;;;2.30;;
18280;SDS011;9266;51.132;17.062;2022-07-11T05:27:15;4.20;;;2.30;;
18280;SDS011;9266;51.132;17.062;2022-07-11T05:29:45;4.30;;;2.33;;
18280;SDS011;9266;51.132;17.062;2022-07-11T05:32:14;5.57;;;2.67;;
18280;SDS011;9266;51.132;17.062;2022-07-11T05:34:43;4.63;;;2.57;;
18280;SDS011;9266;51.132;17.062;2022-07-11T05:37:10;6.70;;;2.47;;
18280;SDS011;9266;51.132;17.062;2022-07-11T05:39:38;5.50;;;2.53;;
18280;SDS011;9266;51.132;17.062;2022-07-11T05:42:08;8.47;;;2.83;;
18280;SDS011;9266;51.132;17.062;2022-07-11T05:44:36;4.63;;;2.53;;
18280;SDS011;9266;51.132;17.062;2022-07-11T05:47:04;6.10;;;2.60;;
18280;SDS011;9266;51.132;17.062;2022-07-11T05:49:31;4.73;;;2.47;;
18280;SDS011;9266;51.132;17.062;2022-07-11T05:51:58;4.40;;;2.50;;
18280;SDS011;9266;51.132;17.062;2022-07-11T05:54:26;5.00;;;2.30;;
18280;SDS011;9266;51.132;17.062;2022-07-11T05:56:55;7.50;;;2.60;;
18280;SDS011;9266;51.132;17.062;2022-07-11T05:59:22;6.28;;;2.60;;
18280;SDS011;9266;51.132;17.062;2022-07-11T06:01:49;8.10;;;2.50;;
18280;SDS011;9266;51.132;17.062;2022-07-11T06:04:16;7.15;;;2.53;;
18280;SDS011;9266;51.132;17.062;2022-07-11T06:06:44;5.20;;;2.35;;
18280;SDS011;9266;51.132;17.062;2022-07-11T06:09:11;4.68;;;1.95;;
18280;SDS011;9266;51.132;17.062;2022-07-11T06:11:39;5.35;;;2.58;;
18280;SDS011;9266;51.132;17.062;2022-07-11T06:14:07;6.43;;;2.20;;
18280;SDS011;9266;51.132;17.062;2022-07-11T06:16:35;8.75;;;2.33;;
18280;SDS011;9266;51.132;17.062;2022-07-11T06:19:02;2.53;;;1.80;;
18280;SDS011;9266;51.132;17.062;2022-07-11T06:21:29;6.72;;;2.35;;
18280;SDS011;9266;51.132;17.062;2022-07-11T06:23:56;5.68;;;2.50;;
18280;SDS011;9266;51.132;17.062;2022-07-11T06:26:23;6.72;;;2.42;;
18280;SDS011;9266;51.132;17.062;2022-07-11T06:28:50;5.18;;;2.45;;
18280;SDS011;9266;51.132;17.062;2022-07-11T06:31:19;4.27;;;2.07;;
18280;SDS011;9266;51.132;17.062;2022-07-11T06:33:48;6.67;;;2.40;;
18280;SDS011;9266;51.132;17.062;2022-07-11T06:36:21;7.93;;;2.97;;
18280;SDS011;9266;51.132;17.062;2022-07-11T06:38:49;7.00;;;2.17;;
18280;SDS011;9266;51.132;17.062;2022-07-11T06:41:16;4.10;;;2.00;;
18280;SDS011;9266;51.132;17.062;2022-07-11T06:43:43;5.50;;;2.30;;
18280;SDS011;9266;51.132;17.062;2022-07-11T06:46:13;6.67;;;2.50;;
18280;SDS011;9266;51.132;17.062;2022-07-11T06:48:41;5.57;;;2.40;;
18280;SDS011;9266;51.132;17.062;2022-07-11T06:51:09;6.63;;;2.77;;
18280;SDS011;9266;51.132;17.062;2022-07-11T06:53:36;8.67;;;2.60;;
18280;SDS011;9266;51.132;17.062;2022-07-11T06:56:03;5.00;;;2.57;;
18280;SDS011;9266;51.132;17.062;2022-07-11T06:58:30;7.83;;;2.50;;
18280;SDS011;9266;51.132;17.062;2022-07-11T07:00:58;7.67;;;2.43;;
18280;SDS011;9266;51.132;17.062;2022-07-11T07:03:26;7.27;;;2.50;;
18280;SDS011;9266;51.132;17.062;2022-07-11T07:05:55;9.80;;;2.50;;
18280;SDS011;9266;51.132;17.062;2022-07-11T07:08:23;6.00;;;2.60;;
18280;SDS011;9266;51.132;17.062;2022-07-11T07:10:54;4.50;;;2.17;;
18280;SDS011;9266;51.132;17.062;2022-07-11T07:13:22;6.57;;;2.30;;
18280;SDS011;9266;51.132;17.062;2022-07-11T07:15:50;7.93;;;2.30;;
18280;SDS011;9266;51.132;17.062;2022-07-11T07:18:21;4.83;;;2.20;;
18280;SDS011;9266;51.132;17.062;2022-07-11T07:20:48;4.83;;;2.13;;
18280;SDS011;9266;51.132;17.062;2022-07-11T07:23:17;4.83;;;2.17;;
18280;SDS011;9266;51.132;17.062;2022-07-11T07:25:44;7.83;;;2.57;;
18280;SDS011;9266;51.132;17.062;2022-07-11T07:28:11;6.03;;;2.17;;
18280;SDS011;9266;51.132;17.062;2022-07-11T07:30:38;7.27;;;2.30;;
18280;SDS011;9266;51.132;17.062;2022-07-11T07:33:05;6.00;;;2.20;;
18280;SDS011;9266;51.132;17.062;2022-07-11T07:35:32;4.03;;;2.20;;
18280;SDS011;9266;51.132;17.062;2022-07-11T07:37:59;6.13;;;2.23;;
18280;SDS011;9266;51.132;17.062;2022-07-11T07:40:28;6.40;;;2.40;;
18280;SDS011;9266;51.132;17.062;2022-07-11T07:42:55;5.43;;;2.20;;
18280;SDS011;9266;51.132;17.062;2022-07-11T07:45:22;9.30;;;2.63;;
18280;SDS011;9266;51.132;17.062;2022-07-11T07:47:49;7.50;;;2.70;;
18280;SDS011;9266;51.132;17.062;2022-07-11T07:50:17;6.03;;;2.90;;
18280;SDS011;9266;51.132;17.062;2022-07-11T07:52:44;6.57;;;2.33;;
18280;SDS011;9266;51.132;17.062;2022-07-11T07:55:11;8.13;;;2.57;;
18280;SDS011;9266;51.132;17.062;2022-07-11T07:57:40;4.13;;;2.37;;
18280;SDS011;9266;51.132;17.062;2022-07-11T08:00:07;3.27;;;1.93;;
18280;SDS011;9266;51.132;17.062;2022-07-11T08:02:52;2.67;;;1.77;;
18280;SDS011;9266;51.132;17.062;2022-07-11T08:05:19;5.50;;;1.90;;
18280;SDS011;9266;51.132;17.062;2022-07-11T08:07:49;4.87;;;2.13;;
18280;SDS011;9266;51.132;17.062;2022-07-11T08:10:16;6.43;;;2.10;;
18280;SDS011;9266;51.132;17.062;2022-07-11T08:12:45;6.27;;;1.60;;
18280;SDS011;9266;51.132;17.062;2022-07-11T08:15:12;3.83;;;1.73;;
18280;SDS011;9266;51.132;17.062;2022-07-11T08:17:40;3.47;;;1.90;;
18280;SDS011;9266;51.132;17.062;2022-07-11T08:20:08;4.40;;;1.40;;
18280;SDS011;9266;51.132;17.062;2022-07-11T08:22:35;1.90;;;1.50;;
18280;SDS011;9266;51.132;17.062;2022-07-11T08:25:03;3.23;;;1.60;;
18280;SDS011;9266;51.132;17.062;2022-07-11T08:27:30;3.93;;;1.70;;
18280;SDS011;9266;51.132;17.062;2022-07-11T08:30:00;4.33;;;1.93;;
18280;SDS011;9266;51.132;17.062;2022-07-11T08:32:28;3.03;;;1.60;;
18280;SDS011;9266;51.132;17.062;2022-07-11T08:34:55;4.57;;;1.50;;
18280;SDS011;9266;51.132;17.062;2022-07-11T08:37:22;4.37;;;1.83;;
18280;SDS011;9266;51.132;17.062;2022-07-11T08:39:49;2.30;;;1.50;;
18280;SDS011;9266;51.132;17.062;2022-07-11T08:42:18;2.23;;;1.43;;
18280;SDS011;9266;51.132;17.062;2022-07-11T08:44:46;4.13;;;1.60;;
18280;SDS011;9266;51.132;17.062;2022-07-11T08:47:14;5.63;;;2.07;;
18280;SDS011;9266;51.132;17.062;2022-07-11T08:49:42;3.20;;;1.57;;
18280;SDS011;9266;51.132;17.062;2022-07-11T08:52:11;3.67;;;1.53;;
18280;SDS011;9266;51.132;17.062;2022-07-11T08:54:38;5.70;;;1.60;;
18280;SDS011;9266;51.132;17.062;2022-07-11T08:57:05;3.37;;;1.77;;
18280;SDS011;9266;51.132;17.062;2022-07-11T08:59:33;4.03;;;1.70;;
18280;SDS011;9266;51.132;17.062;2022-07-11T09:02:01;5.80;;;2.10;;
18280;SDS011;9266;51.132;17.062;2022-07-11T09:04:30;3.83;;;1.90;;
18280;SDS011;9266;51.132;17.062;2022-07-11T09:06:59;2.33;;;1.40;;
18280;SDS011;9266;51.132;17.062;2022-07-11T09:09:27;5.00;;;1.60;;
18280;SDS011;9266;51.132;17.062;2022-07-11T09:11:55;2.67;;;1.50;;
18280;SDS011;9266;51.132;17.062;2022-07-11T09:14:23;4.37;;;1.57;;
18280;SDS011;9266;51.132;17.062;2022-07-11T09:16:52;5.20;;;1.60;;
18280;SDS011;9266;51.132;17.062;2022-07-11T09:19:20;3.43;;;1.60;;
18280;SDS011;9266;51.132;17.062;2022-07-11T09:22:00;3.90;;;1.70;;
18280;SDS011;9266;51.132;17.062;2022-07-11T09:24:53;2.33;;;1.70;;
18280;SDS011;9266;51.132;17.062;2022-07-11T09:27:43;3.57;;;1.73;;
18280;SDS011;9266;51.132;17.062;2022-07-11T09:30:15;3.77;;;1.60;;
18280;SDS011;9266;51.132;17.062;2022-07-11T09:32:51;4.60;;;2.10;;
18280;SDS011;9266;51.132;17.062;2022-07-11T09:35:19;6.50;;;1.97;;
18280;SDS011;9266;51.132;17.062;2022-07-11T09:37:48;2.83;;;1.57;;
18280;SDS011;9266;51.132;17.062;2022-07-11T09:40:15;3.07;;;1.73;;
18280;SDS011;9266;51.132;17.062;2022-07-11T09:42:46;3.90;;;1.63;;
18280;SDS011;9266;51.132;17.062;2022-07-11T09:45:15;4.00;;;1.50;;
18280;SDS011;9266;51.132;17.062;2022-07-11T09:47:43;2.80;;;1.90;;
18280;SDS011;9266;51.132;17.062;2022-07-11T09:50:11;4.47;;;1.70;;
18280;SDS011;9266;51.132;17.062;2022-07-11T09:52:39;6.90;;;1.90;;
18280;SDS011;9266;51.132;17.062;2022-07-11T09:55:11;4.60;;;2.03;;
18280;SDS011;9266;51.132;17.062;2022-07-11T09:57:38;3.60;;;1.53;;
18280;SDS011;9266;51.132;17.062;2022-07-11T10:00:06;5.47;;;2.30;;
18280;SDS011;9266;51.132;17.062;2022-07-11T10:02:34;2.30;;;1.27;;
18280;SDS011;9266;51.132;17.062;2022-07-11T10:05:02;2.57;;;1.53;;
18280;SDS011;9266;51.132;17.062;2022-07-11T10:07:30;3.83;;;1.70;;
18280;SDS011;9266;51.132;17.062;2022-07-11T10:09:58;2.93;;;1.50;;
18280;SDS011;9266;51.132;17.062;2022-07-11T10:12:27;3.63;;;1.50;;
18280;SDS011;9266;51.132;17.062;2022-07-11T10:14:57;4.10;;;1.90;;
18280;SDS011;9266;51.132;17.062;2022-07-11T10:17:27;2.73;;;1.53;;
18280;SDS011;9266;51.132;17.062;2022-07-11T10:20:01;2.10;;;1.63;;
18280;SDS011;9266;51.132;17.062;2022-07-11T10:22:35;3.60;;;1.70;;
18280;SDS011;9266;51.132;17.062;2022-07-11T10:25:07;3.93;;;1.60;;
18280;SDS011;9266;51.132;17.062;2022-07-11T10:27:50;3.70;;;1.70;;
18280;SDS011;9266;51.132;17.062;2022-07-11T10:30:45;3.50;;;2.03;;
18280;SDS011;9266;51.132;17.062;2022-07-11T10:33:13;4.20;;;1.90;;
18280;SDS011;9266;51.132;17.062;2022-07-11T10:35:41;2.23;;;1.40;;
18280;SDS011;9266;51.132;17.062;2022-07-11T10:38:09;1.80;;;1.70;;
18280;SDS011;9266;51.132;17.062;2022-07-11T10:40:40;3.90;;;1.83;;
18280;SDS011;9266;51.132;17.062;2022-07-11T10:43:09;4.53;;;1.77;;
18280;SDS011;9266;51.132;17.062;2022-07-11T10:45:49;3.70;;;1.70;;
18280;SDS011;9266;51.132;17.062;2022-07-11T10:48:24;5.50;;;2.00;;
18280;SDS011;9266;51.132;17.062;2022-07-11T10:51:03;4.00;;;1.93;;
18280;SDS011;9266;51.132;17.062;2022-07-11T10:53:38;3.30;;;1.70;;
18280;SDS011;9266;51.132;17.062;2022-07-11T10:56:09;3.57;;;1.60;;
18280;SDS011;9266;51.132;17.062;2022-07-11T10:58:46;3.97;;;1.50;;
18280;SDS011;9266;51.132;17.062;2022-07-11T11:01:25;2.77;;;1.30;;
18280;SDS011;9266;51.132;17.062;2022-07-11T11:03:53;2.17;;;1.10;;
18280;SDS011;9266;51.132;17.062;2022-07-11T11:06:59;2.17;;;1.40;;
18280;SDS011;9266;51.132;17.062;2022-07-11T11:09:36;3.30;;;1.40;;
18280;SDS011;9266;51.132;17.062;2022-07-11T11:12:04;2.43;;;1.27;;
18280;SDS011;9266;51.132;17.062;2022-07-11T11:14:34;1.90;;;1.00;;
18280;SDS011;9266;51.132;17.062;2022-07-11T11:20:03;1.37;;;1.13;;
18280;SDS011;9266;51.132;17.062;2022-07-11T11:22:30;1.80;;;1.10;;
18280;SDS011;9266;51.132;17.062;2022-07-11T11:25:01;1.90;;;0.97;;
18280;SDS011;9266;51.132;17.062;2022-07-11T11:27:29;1.17;;;0.80;;
18280;SDS011;9266;51.132;17.062;2022-07-11T11:29:59;2.70;;;1.30;;
18280;SDS011;9266;51.132;17.062;2022-07-11T11:32:28;1.77;;;1.67;;
18280;SDS011;9266;51.132;17.062;2022-07-11T11:34:56;3.47;;;1.40;;
18280;SDS011;9266;51.132;17.062;2022-07-11T11:37:25;1.40;;;1.00;;
18280;SDS011;9266;51.132;17.062;2022-07-11T11:39:56;4.33;;;1.20;;
18280;SDS011;9266;51.132;17.062;2022-07-11T11:42:25;1.90;;;1.30;;
18280;SDS011;9266;51.132;17.062;2022-07-11T11:44:55;2.90;;;1.47;;
18280;SDS011;9266;51.132;17.062;2022-07-11T11:47:26;2.30;;;1.53;;
18280;SDS011;9266;51.132;17.062;2022-07-11T11:49:55;3.67;;;1.60;;
18280;SDS011;9266;51.132;17.062;2022-07-11T11:52:22;3.47;;;1.90;;
18280;SDS011;9266;51.132;17.062;2022-07-11T11:54:51;3.20;;;1.50;;
18280;SDS011;9266;51.132;17.062;2022-07-11T11:57:21;3.27;;;1.23;;
18280;SDS011;9266;51.132;17.062;2022-07-11T11:59:51;2.53;;;1.13;;
18280;SDS011;9266;51.132;17.062;2022-07-11T12:02:23;3.40;;;1.40;;
18280;SDS011;9266;51.132;17.062;2022-07-11T12:04:51;2.50;;;1.40;;
18280;SDS011;9266;51.132;17.062;2022-07-11T12:07:23;3.17;;;1.53;;
18280;SDS011;9266;51.132;17.062;2022-07-11T12:09:52;2.60;;;1.57;;
18280;SDS011;9266;51.132;17.062;2022-07-11T12:12:22;2.97;;;1.60;;
18280;SDS011;9266;51.132;17.062;2022-07-11T12:15:21;4.60;;;1.70;;
18280;SDS011;9266;51.132;17.062;2022-07-11T12:17:55;3.53;;;1.80;;
18280;SDS011;9266;51.132;17.062;2022-07-11T12:20:35;4.97;;;1.40;;
18280;SDS011;9266;51.132;17.062;2022-07-11T12:23:07;2.80;;;1.60;;
18280;SDS011;9266;51.132;17.062;2022-07-11T12:25:35;6.07;;;2.10;;
18280;SDS011;9266;51.132;17.062;2022-07-11T12:28:05;2.93;;;1.70;;
18280;SDS011;9266;51.132;17.062;2022-07-11T12:30:35;3.10;;;1.43;;
18280;SDS011;9266;51.132;17.062;2022-07-11T12:33:16;1.90;;;1.50;;
18280;SDS011;9266;51.132;17.062;2022-07-11T12:35:57;3.17;;;1.63;;
18280;SDS011;9266;51.132;17.062;2022-07-11T12:38:25;2.20;;;1.60;;
18280;SDS011;9266;51.132;17.062;2022-07-11T12:41:07;2.43;;;1.63;;
18280;SDS011;9266;51.132;17.062;2022-07-11T12:43:39;3.10;;;2.57;;
18280;SDS011;9266;51.132;17.062;2022-07-11T12:46:30;3.97;;;3.10;;
18280;SDS011;9266;51.132;17.062;2022-07-11T12:49:02;3.77;;;1.93;;
18280;SDS011;9266;51.132;17.062;2022-07-11T12:51:31;3.63;;;2.10;;
18280;SDS011;9266;51.132;17.062;2022-07-11T12:54:03;3.17;;;1.97;;
18280;SDS011;9266;51.132;17.062;2022-07-11T12:56:31;3.77;;;1.93;;
18280;SDS011;9266;51.132;17.062;2022-07-11T12:58:59;4.17;;;1.93;;
18280;SDS011;9266;51.132;17.062;2022-07-11T13:01:26;4.07;;;2.60;;
18280;SDS011;9266;51.132;17.062;2022-07-11T13:03:54;3.10;;;1.80;;
18280;SDS011;9266;51.132;17.062;2022-07-11T13:06:23;3.30;;;2.03;;
18280;SDS011;9266;51.132;17.062;2022-07-11T13:09:04;3.80;;;1.87;;
18280;SDS011;9266;51.132;17.062;2022-07-11T13:11:31;5.23;;;2.57;;
18280;SDS011;9266;51.132;17.062;2022-07-11T13:13:58;3.40;;;2.00;;
18280;SDS011;9266;51.132;17.062;2022-07-11T13:16:25;4.63;;;2.00;;
18280;SDS011;9266;51.132;17.062;2022-07-11T13:18:53;2.73;;;1.77;;
18280;SDS011;9266;51.132;17.062;2022-07-11T13:21:20;3.00;;;1.53;;
18280;SDS011;9266;51.132;17.062;2022-07-11T13:23:48;3.23;;;1.60;;
18280;SDS011;9266;51.132;17.062;2022-07-11T13:26:16;1.90;;;1.60;;
18280;SDS011;9266;51.132;17.062;2022-07-11T13:28:43;1.70;;;1.50;;
18280;SDS011;9266;51.132;17.062;2022-07-11T13:31:10;1.53;;;1.40;;
18280;SDS011;9266;51.132;17.062;2022-07-11T13:33:37;2.40;;;1.30;;
18280;SDS011;9266;51.132;17.062;2022-07-11T13:36:06;1.47;;;1.30;;
18280;SDS011;9266;51.132;17.062;2022-07-11T13:38:34;3.37;;;1.40;;
18280;SDS011;9266;51.132;17.062;2022-07-11T13:41:03;2.17;;;1.40;;
18280;SDS011;9266;51.132;17.062;2022-07-11T13:43:30;1.43;;;1.33;;
18280;SDS011;9266;51.132;17.062;2022-07-11T13:45:57;2.87;;;1.57;;
18280;SDS011;9266;51.132;17.062;2022-07-11T13:48:24;1.70;;;1.30;;
18280;SDS011;9266;51.132;17.062;2022-07-11T13:50:52;2.90;;;1.60;;
18280;SDS011;9266;51.132;17.062;2022-07-11T13:53:19;2.20;;;1.90;;
18280;SDS011;9266;51.132;17.062;2022-07-11T13:55:47;1.40;;;1.30;;
18280;SDS011;9266;51.132;17.062;2022-07-11T13:58:16;1.30;;;1.13;;
18280;SDS011;9266;51.132;17.062;2022-07-11T14:00:52;3.27;;;1.50;;
18280;SDS011;9266;51.132;17.062;2022-07-11T14:03:20;2.73;;;1.50;;
18280;SDS011;9266;51.132;17.062;2022-07-11T14:05:47;1.57;;;1.30;;
18280;SDS011;9266;51.132;17.062;2022-07-11T14:08:14;1.63;;;1.40;;
18280;SDS011;9266;51.132;17.062;2022-07-11T14:10:41;1.90;;;1.33;;
18280;SDS011;9266;51.132;17.062;2022-07-11T14:13:08;1.37;;;1.20;;
18280;SDS011;9266;51.132;17.062;2022-07-11T14:15:38;2.10;;;1.20;;
18280;SDS011;9266;51.132;17.062;2022-07-11T14:18:06;2.30;;;1.30;;
18280;SDS011;9266;51.132;17.062;2022-07-11T14:20:33;1.50;;;1.40;;
18280;SDS011;9266;51.132;17.062;2022-07-11T14:23:00;1.43;;;1.20;;
18280;SDS011;9266;51.132;17.062;2022-07-11T14:25:27;1.30;;;1.20;;
18280;SDS011;9266;51.132;17.062;2022-07-11T14:27:55;2.40;;;1.13;;
18280;SDS011;9266;51.132;17.062;2022-07-11T14:30:23;3.57;;;1.40;;
18280;SDS011;9266;51.132;17.062;2022-07-11T14:32:52;1.40;;;1.20;;
18280;SDS011;9266;51.132;17.062;2022-07-11T14:35:19;1.80;;;1.23;;
18280;SDS011;9266;51.132;17.062;2022-07-11T14:37:46;1.93;;;1.20;;
18280;SDS011;9266;51.132;17.062;2022-07-11T14:40:14;1.63;;;1.07;;
18280;SDS011;9266;51.132;17.062;2022-07-11T14:42:41;4.93;;;1.30;;
18280;SDS011;9266;51.132;17.062;2022-07-11T14:45:09;2.07;;;1.20;;
18280;SDS011;9266;51.132;17.062;2022-07-11T14:47:37;2.40;;;1.10;;
18280;SDS011;9266;51.132;17.062;2022-07-11T14:50:07;2.30;;;1.17;;
18280;SDS011;9266;51.132;17.062;2022-07-11T14:52:35;2.07;;;1.30;;
18280;SDS011;9266;51.132;17.062;2022-07-11T14:55:03;3.83;;;1.17;;
18280;SDS011;9266;51.132;17.062;2022-07-11T14:57:31;2.00;;;1.30;;
18280;SDS011;9266;51.132;17.062;2022-07-11T14:59:58;1.10;;;1.00;;
18280;SDS011;9266;51.132;17.062;2022-07-11T15:02:25;1.70;;;1.30;;